Time;durP1;ratioP1;P1;durP2;ratioP2;P2;SDS_P1;SDS_P2;PMS_P1;PMS_P2;Temp;Humidity;BMP_temperature;BMP_pressure;BME280_temperature;BME280_humidity;BME280_pressure;Samples;Min_cycle;Max_cycle;Signal;HPM_P1;HPM_P2
2022/01/24 00:00:39;;;;;;;7.85;4.32;;;;;;;;;;143748;607;46015;-83
2022/01/24 00:03:07;;;;;;;8.45;4.70;;;;;;;;;;143746;570;46021;-81
2022/01/24 00:05:35;;;;;;;4.55;3.37;;;;;;;;;;143747;631;46012;-81
2022/01/24 00:08:03;;;;;;;7.25;4.47;;;;;;;;;;143744;676;46022;-82
2022/01/24 00:10:34;;;;;;;8.10;3.83;;;;;;;;;;143747;611;46020;-81
2022/01/24 00:13:50;;;;;;;7.57;4.28;;;;;;;;;;143747;580;46020;-82
2022/01/24 00:16:01;;;;;;;9.60;4.65;;;;;;;;;;143746;662;46022;-81
2022/01/24 00:26:41;;;;;;;7.18;3.95;;;;;;;;;;143744;577;46023;-80
2022/01/24 00:26:47;;;;;;;6.82;3.28;;;;;;;;;;143748;674;46045;-81
2022/01/24 00:29:18;;;;;;;5.68;3.25;;;;;;;;;;143745;576;46033;-81
2022/01/24 00:31:49;;;;;;;9.32;4.55;;;;;;;;;;143745;600;46012;-82
2022/01/24 00:34:18;;;;;;;7.60;4.28;;;;;;;;;;143743;581;46020;-81
2022/01/24 00:36:48;;;;;;;7.62;4.05;;;;;;;;;;143749;701;46018;-80
2022/01/24 00:39:22;;;;;;;5.00;3.60;;;;;;;;;;143744;668;47022;-82
2022/01/24 00:42:17;;;;;;;7.57;3.72;;;;;;;;;;143745;644;46014;-82
2022/01/24 00:45:06;;;;;;;8.02;3.70;;;;;;;;;;143747;583;46014;-81
2022/01/24 00:53:37;;;;;;;8.48;4.10;;;;;;;;;;143744;566;46021;-81
2022/01/24 00:55:59;;;;;;;6.80;3.83;;;;;;;;;;143748;589;46020;-83
2022/01/24 00:58:26;;;;;;;9.68;3.80;;;;;;;;;;143749;650;46012;-81
2022/01/24 01:00:59;;;;;;;7.22;3.58;;;;;;;;;;143746;616;46022;-81
2022/01/24 01:03:26;;;;;;;6.37;3.80;;;;;;;;;;143745;639;46012;-82
2022/01/24 01:06:05;;;;;;;7.37;4.10;;;;;;;;;;143738;569;49020;-81
2022/01/24 01:19:42;;;;;;;4.75;3.20;;;;;;;;;;143746;656;47020;-82
2022/01/24 01:22:10;;;;;;;8.43;4.25;;;;;;;;;;143745;589;46051;-81
2022/01/24 01:24:42;;;;;;;7.18;4.12;;;;;;;;;;143744;574;46012;-81
2022/01/24 01:27:18;;;;;;;9.38;4.28;;;;;;;;;;143745;571;46020;-81
2022/01/24 01:29:57;;;;;;;9.63;4.72;;;;;;;;;;143746;614;46013;-81
2022/01/24 01:32:53;;;;;;;6.78;4.60;;;;;;;;;;143746;624;47020;-82
2022/01/24 01:38:44;;;;;;;10.00;4.43;;;;;;;;;;143747;634;46021;-82
2022/01/24 01:55:16;;;;;;;15.02;6.18;;;;;;;;;;143747;588;46023;-82
2022/01/24 01:57:43;;;;;;;18.80;5.07;;;;;;;;;;143746;577;46012;-80
2022/01/24 02:00:13;;;;;;;6.90;4.12;;;;;;;;;;143748;572;46020;-81
2022/01/24 02:02:40;;;;;;;5.78;3.85;;;;;;;;;;143749;621;46043;-81
2022/01/24 02:05:08;;;;;;;7.30;3.60;;;;;;;;;;143747;575;46022;-81
2022/01/24 02:07:46;;;;;;;9.55;4.70;;;;;;;;;;143745;572;46013;-81
2022/01/24 02:10:12;;;;;;;7.45;4.57;;;;;;;;;;143746;581;46014;-82
2022/01/24 02:12:39;;;;;;;7.75;4.05;;;;;;;;;;143748;613;46018;-81
2022/01/24 02:15:06;;;;;;;9.38;5.10;;;;;;;;;;143745;570;46022;-84
2022/01/24 02:20:43;;;;;;;9.57;4.82;;;;;;;;;;143746;641;46020;-82
2022/01/24 02:26:10;;;;;;;6.57;4.78;;;;;;;;;;143749;588;46022;-81
2022/01/24 02:28:51;;;;;;;5.15;4.03;;;;;;;;;;143744;586;46020;-81
2022/01/24 02:34:05;;;;;;;7.85;4.40;;;;;;;;;;143751;606;46020;-79
2022/01/24 02:36:32;;;;;;;9.90;4.57;;;;;;;;;;143746;583;47022;-80
2022/01/24 02:39:42;;;;;;;9.50;4.62;;;;;;;;;;143746;619;46020;-80
2022/01/24 02:51:03;;;;;;;7.75;4.07;;;;;;;;;;143750;592;46020;-80
2022/01/24 02:53:32;;;;;;;7.10;4.30;;;;;;;;;;143750;583;46021;-80
2022/01/24 02:56:01;;;;;;;11.52;5.68;;;;;;;;;;143751;572;47018;-80
2022/01/24 02:58:28;;;;;;;9.25;4.47;;;;;;;;;;143747;610;46022;-80
2022/01/24 03:00:56;;;;;;;12.18;5.70;;;;;;;;;;143745;571;46013;-80
2022/01/24 03:03:26;;;;;;;8.00;4.85;;;;;;;;;;143746;564;46020;-80
2022/01/24 03:05:52;;;;;;;17.15;9.70;;;;;;;;;;143751;636;45043;-80
2022/01/24 03:08:21;;;;;;;13.70;7.10;;;;;;;;;;143748;609;46022;-81
2022/01/24 03:10:48;;;;;;;11.82;5.95;;;;;;;;;;143744;600;46012;-81
2022/01/24 03:13:21;;;;;;;17.55;8.82;;;;;;;;;;143746;607;46020;-81
2022/01/24 03:15:50;;;;;;;18.55;7.95;;;;;;;;;;143748;660;46012;-80
2022/01/24 03:18:19;;;;;;;10.63;5.53;;;;;;;;;;143747;571;46014;-81
2022/01/24 03:20:46;;;;;;;11.55;6.30;;;;;;;;;;143746;579;46012;-81
2022/01/24 03:23:16;;;;;;;17.62;7.72;;;;;;;;;;143751;597;46021;-80
2022/01/24 03:25:43;;;;;;;15.48;8.18;;;;;;;;;;143750;613;46012;-80
2022/01/24 03:28:11;;;;;;;10.27;6.37;;;;;;;;;;143746;582;47022;-81
2022/01/24 03:30:39;;;;;;;10.13;5.30;;;;;;;;;;143744;576;46013;-81
2022/01/24 03:33:10;;;;;;;9.00;5.72;;;;;;;;;;143747;610;46020;-81
2022/01/24 03:35:40;;;;;;;8.95;4.70;;;;;;;;;;143749;572;46012;-81
2022/01/24 03:38:09;;;;;;;15.27;7.07;;;;;;;;;;143748;599;46023;-81
2022/01/24 03:40:36;;;;;;;8.70;6.12;;;;;;;;;;143745;633;46020;-81
2022/01/24 03:43:03;;;;;;;12.07;6.32;;;;;;;;;;143748;569;46020;-80
2022/01/24 03:46:08;;;;;;;6.85;4.50;;;;;;;;;;143751;566;46012;-81
2022/01/24 03:48:39;;;;;;;10.43;4.53;;;;;;;;;;143749;586;46024;-81
2022/01/24 03:51:06;;;;;;;10.40;6.70;;;;;;;;;;143753;652;45021;-81
2022/01/24 03:53:33;;;;;;;14.43;9.75;;;;;;;;;;143747;629;46021;-81
2022/01/24 03:56:01;;;;;;;7.70;5.25;;;;;;;;;;143750;589;46012;-81
2022/01/24 03:58:33;;;;;;;;;;;;;;;;;;143751;982;47022;-81
2022/01/24 04:01:01;;;;;;;7.22;5.25;;;;;;;;;;143751;584;46010;-81
2022/01/24 04:03:27;;;;;;;8.38;5.00;;;;;;;;;;143748;623;46048;-80
2022/01/24 04:05:54;;;;;;;9.98;5.62;;;;;;;;;;143749;569;46010;-81
2022/01/24 04:08:21;;;;;;;8.73;5.93;;;;;;;;;;143750;633;46012;-81
2022/01/24 04:10:52;;;;;;;11.65;5.90;;;;;;;;;;143750;566;46020;-81
2022/01/24 04:13:28;;;;;;;11.32;7.65;;;;;;;;;;143750;594;46020;-81
2022/01/24 04:19:24;;;;;;;11.63;7.10;;;;;;;;;;143748;577;46014;-81
2022/01/24 04:21:48;;;;;;;12.60;8.23;;;;;;;;;;143749;587;46021;-82
2022/01/24 04:24:20;;;;;;;11.88;6.25;;;;;;;;;;143749;595;46021;-81
2022/01/24 04:26:46;;;;;;;9.90;7.07;;;;;;;;;;143753;592;46010;-82
2022/01/24 04:29:13;;;;;;;9.68;4.40;;;;;;;;;;143743;577;47022;-81
2022/01/24 04:31:40;;;;;;;11.80;7.35;;;;;;;;;;143749;590;46010;-81
2022/01/24 04:34:06;;;;;;;8.80;6.93;;;;;;;;;;143748;564;46020;-81
2022/01/24 04:36:35;;;;;;;11.80;6.62;;;;;;;;;;143751;589;46010;-82
2022/01/24 04:39:04;;;;;;;10.32;5.65;;;;;;;;;;143747;600;46020;-81
2022/01/24 04:41:36;;;;;;;11.20;6.10;;;;;;;;;;143746;585;46010;-82
2022/01/24 04:47:14;;;;;;;12.10;7.30;;;;;;;;;;143751;600;46020;-81
2022/01/24 04:52:45;;;;;;;11.35;5.72;;;;;;;;;;143746;586;46010;-81
2022/01/24 04:55:12;;;;;;;11.57;6.80;;;;;;;;;;143743;590;47020;-82
2022/01/24 04:57:39;;;;;;;9.43;5.93;;;;;;;;;;143751;570;46018;-82
2022/01/24 05:00:09;;;;;;;14.68;8.27;;;;;;;;;;143747;595;47022;-81
2022/01/24 05:02:39;;;;;;;9.93;4.93;;;;;;;;;;143746;586;46010;-80
2022/01/24 05:05:10;;;;;;;6.85;4.80;;;;;;;;;;143750;591;46013;-81
2022/01/24 05:07:37;;;;;;;10.25;6.22;;;;;;;;;;143747;571;46021;-82
2022/01/24 05:23:24;;;;;;;30.50;19.20;;;;;;;;;;143747;604;46021;-82
2022/01/24 05:24:19;;;;;;;9.82;5.12;;;;;;;;;;143749;589;45915;-82
2022/01/24 05:26:46;;;;;;;12.25;8.40;;;;;;;;;;143750;587;46020;-81
2022/01/24 05:29:13;;;;;;;8.30;4.60;;;;;;;;;;143752;566;46010;-82
2022/01/24 05:31:40;;;;;;;9.13;5.62;;;;;;;;;;143751;620;46023;-81
2022/01/24 05:34:08;;;;;;;7.70;5.10;;;;;;;;;;143745;628;46915;-81
2022/01/24 05:36:35;;;;;;;8.13;4.87;;;;;;;;;;143747;575;46021;-82
2022/01/24 05:39:02;;;;;;;9.27;5.90;;;;;;;;;;143749;566;46010;-81
2022/01/24 05:41:29;;;;;;;8.30;5.32;;;;;;;;;;143750;570;45592;-82
2022/01/24 05:43:56;;;;;;;11.43;5.62;;;;;;;;;;143746;612;46021;-81
2022/01/24 05:46:23;;;;;;;7.68;5.32;;;;;;;;;;143746;588;47020;-81
2022/01/24 05:48:51;;;;;;;7.37;4.78;;;;;;;;;;143750;621;46018;-81
2022/01/24 05:51:20;;;;;;;9.88;5.07;;;;;;;;;;143747;570;47022;-82
2022/01/24 05:53:47;;;;;;;7.25;4.90;;;;;;;;;;143746;564;46010;-82
2022/01/24 05:56:17;;;;;;;6.28;4.47;;;;;;;;;;143749;585;46020;-81
2022/01/24 05:58:44;;;;;;;7.80;5.03;;;;;;;;;;143750;606;46045;-82
2022/01/24 06:01:11;;;;;;;8.82;5.32;;;;;;;;;;143747;575;46023;-81
2022/01/24 06:03:38;;;;;;;7.47;5.07;;;;;;;;;;143747;569;46020;-82
2022/01/24 06:06:07;;;;;;;7.70;4.80;;;;;;;;;;143748;611;46021;-81
2022/01/24 06:08:34;;;;;;;8.75;5.53;;;;;;;;;;143750;581;46020;-81
2022/01/24 06:11:00;;;;;;;8.70;4.87;;;;;;;;;;143748;564;46022;-82
2022/01/24 06:13:27;;;;;;;15.80;8.07;;;;;;;;;;143745;600;46020;-82
2022/01/24 06:15:54;;;;;;;9.55;4.82;;;;;;;;;;143750;575;46020;-82
2022/01/24 06:18:25;;;;;;;11.85;7.30;;;;;;;;;;143748;564;46020;-82
2022/01/24 06:20:53;;;;;;;9.23;5.50;;;;;;;;;;143745;576;46022;-80
2022/01/24 06:23:20;;;;;;;8.80;6.07;;;;;;;;;;143746;598;46010;-79
2022/01/24 06:25:47;;;;;;;8.75;6.05;;;;;;;;;;143750;616;46020;-80
2022/01/24 06:28:14;;;;;;;9.65;5.25;;;;;;;;;;143750;572;46021;-80
2022/01/24 06:30:41;;;;;;;7.65;5.97;;;;;;;;;;143747;611;46020;-80
2022/01/24 06:33:08;;;;;;;9.70;6.05;;;;;;;;;;143746;647;46010;-81
2022/01/24 06:35:36;;;;;;;10.10;6.00;;;;;;;;;;143748;620;46021;-80
2022/01/24 06:38:03;;;;;;;11.00;7.80;;;;;;;;;;143749;570;46010;-80
2022/01/24 06:40:32;;;;;;;10.30;6.70;;;;;;;;;;143749;564;46022;-80
2022/01/24 06:42:59;;;;;;;13.05;6.90;;;;;;;;;;143746;603;46021;-79
2022/01/24 06:45:26;;;;;;;9.38;6.72;;;;;;;;;;143749;589;46021;-80
2022/01/24 06:47:56;;;;;;;11.45;6.62;;;;;;;;;;143750;574;46010;-80
2022/01/24 06:50:23;;;;;;;9.75;6.15;;;;;;;;;;143745;564;47020;-80
2022/01/24 06:52:50;;;;;;;10.10;6.05;;;;;;;;;;143747;639;46010;-81
2022/01/24 06:55:17;;;;;;;11.63;5.00;;;;;;;;;;143749;564;46020;-81
2022/01/24 06:57:47;;;;;;;12.85;6.55;;;;;;;;;;143746;633;47020;-81
2022/01/24 07:00:14;;;;;;;18.58;11.50;;;;;;;;;;143746;595;46023;-80
2022/01/24 07:02:41;;;;;;;14.93;8.00;;;;;;;;;;143746;579;46010;-81
2022/01/24 07:05:18;;;;;;;14.95;8.63;;;;;;;;;;143749;574;46021;-81
2022/01/24 07:07:46;;;;;;;15.60;9.18;;;;;;;;;;143750;569;46018;-81
2022/01/24 07:10:18;;;;;;;11.32;7.28;;;;;;;;;;143748;634;46022;-80
2022/01/24 07:12:47;;;;;;;17.60;13.00;;;;;;;;;;143749;603;45915;-81
2022/01/24 07:15:16;;;;;;;11.18;6.90;;;;;;;;;;143750;613;46021;-80
2022/01/24 07:20:39;;;;;;;7.47;3.90;;;;;;;;;;143747;588;47021;-80
2022/01/24 07:23:07;;;;;;;7.10;4.55;;;;;;;;;;143744;566;47020;-81
2022/01/24 07:25:34;;;;;;;9.52;5.15;;;;;;;;;;143745;578;47010;-81
2022/01/24 07:28:01;;;;;;;13.38;9.02;;;;;;;;;;143749;564;46021;-80
2022/01/24 07:30:28;;;;;;;9.80;6.15;;;;;;;;;;143749;616;46012;-82
2022/01/24 07:32:55;;;;;;;9.45;4.85;;;;;;;;;;143745;570;46010;-80
2022/01/24 07:35:22;;;;;;;7.00;5.20;;;;;;;;;;143748;626;46021;-81
2022/01/24 07:37:49;;;;;;;9.18;5.75;;;;;;;;;;143748;593;46018;-81
2022/01/24 07:40:23;;;;;;;9.93;6.93;;;;;;;;;;143750;571;46020;-81
2022/01/24 07:43:18;;;;;;;14.85;10.02;;;;;;;;;;143746;626;46011;-82
2022/01/24 07:46:10;;;;;;;17.55;13.38;;;;;;;;;;143750;633;46020;-82
2022/01/24 07:48:37;;;;;;;16.85;7.90;;;;;;;;;;143751;616;46010;-81
2022/01/24 07:51:21;;;;;;;;;;;;;;;;;;;;;
2022/01/24 07:54:10;;;;;;;8.48;6.50;;;;;;;;;;143744;564;46014;-81
2022/01/24 07:56:37;;;;;;;16.50;8.50;;;;;;;;;;143748;602;46020;-80
2022/01/24 07:59:04;;;;;;;12.25;6.78;;;;;;;;;;143748;585;46010;-79
2022/01/24 08:01:31;;;;;;;10.82;6.80;;;;;;;;;;143745;588;46020;-81
2022/01/24 08:04:00;;;;;;;9.38;6.82;;;;;;;;;;143743;611;46010;-79
2022/01/24 08:06:30;;;;;;;10.40;6.07;;;;;;;;;;143748;593;46021;-79
2022/01/24 08:08:57;;;;;;;9.85;5.80;;;;;;;;;;143747;653;46010;-78
2022/01/24 08:11:24;;;;;;;12.80;6.18;;;;;;;;;;143746;576;46012;-78
2022/01/24 08:13:55;;;;;;;8.48;4.70;;;;;;;;;;143744;570;46010;-78
2022/01/24 08:16:27;;;;;;;6.85;5.22;;;;;;;;;;143746;564;46020;-79
2022/01/24 08:18:57;;;;;;;7.18;4.95;;;;;;;;;;143748;633;46018;-77
2022/01/24 08:21:30;;;;;;;12.40;8.55;;;;;;;;;;143746;566;45023;-78
2022/01/24 08:24:00;;;;;;;11.60;7.25;;;;;;;;;;143745;651;46010;-77
2022/01/24 08:26:32;;;;;;;16.37;9.10;;;;;;;;;;143747;627;46020;-76
2022/01/24 08:28:59;;;;;;;16.55;9.95;;;;;;;;;;143748;564;46010;-77
2022/01/24 08:31:28;;;;;;;9.45;6.45;;;;;;;;;;143746;569;46012;-76
2022/01/24 08:33:54;;;;;;;14.52;7.03;;;;;;;;;;143747;654;46010;-77
2022/01/24 08:36:23;;;;;;;12.05;6.97;;;;;;;;;;143744;570;46021;-76
2022/01/24 08:38:51;;;;;;;11.60;8.05;;;;;;;;;;143748;638;46020;-77
2022/01/24 08:41:27;;;;;;;11.30;7.30;;;;;;;;;;143746;608;47022;-77
2022/01/24 08:44:19;;;;;;;9.20;7.18;;;;;;;;;;143745;575;46010;-77
2022/01/24 08:46:50;;;;;;;13.23;7.93;;;;;;;;;;143746;580;46020;-77
2022/01/24 08:49:17;;;;;;;15.27;10.73;;;;;;;;;;143748;564;46036;-77
2022/01/24 08:51:45;;;;;;;16.98;10.48;;;;;;;;;;143745;581;46023;-77
2022/01/24 08:54:13;;;;;;;11.93;8.10;;;;;;;;;;143743;572;46020;-78
2022/01/24 08:56:40;;;;;;;9.52;7.30;;;;;;;;;;143748;589;46038;-77
2022/01/24 08:59:09;;;;;;;16.80;11.50;;;;;;;;;;143746;700;46021;-78
2022/01/24 09:01:36;;;;;;;17.05;12.45;;;;;;;;;;143742;610;47022;-78
2022/01/24 09:04:03;;;;;;;19.90;13.55;;;;;;;;;;143744;724;46010;-78
2022/01/24 09:06:29;;;;;;;11.15;8.60;;;;;;;;;;143745;628;46021;-78
2022/01/24 09:09:01;;;;;;;16.52;10.65;;;;;;;;;;143751;598;46010;-77
2022/01/24 09:11:36;;;;;;;22.55;12.80;;;;;;;;;;143743;578;47022;-78
2022/01/24 09:14:06;;;;;;;14.45;9.68;;;;;;;;;;143744;608;46020;-78
2022/01/24 09:16:33;;;;;;;12.82;10.05;;;;;;;;;;143747;611;46020;-78
2022/01/24 09:19:00;;;;;;;21.15;13.60;;;;;;;;;;143747;634;46011;-78
2022/01/24 09:21:28;;;;;;;22.42;12.82;;;;;;;;;;143745;622;47023;-79
2022/01/24 09:23:55;;;;;;;19.83;13.00;;;;;;;;;;143743;608;46010;-77
2022/01/24 09:26:23;;;;;;;14.90;11.10;;;;;;;;;;143746;573;46020;-79
2022/01/24 09:28:50;;;;;;;22.10;12.63;;;;;;;;;;143748;585;46010;-78
2022/01/24 09:31:18;;;;;;;18.60;13.13;;;;;;;;;;143745;591;46022;-79
2022/01/24 09:33:54;;;;;;;22.85;15.32;;;;;;;;;;143745;587;46021;-78
2022/01/24 09:36:39;;;;;;;28.48;20.37;;;;;;;;;;143744;587;46021;-78
2022/01/24 09:39:12;;;;;;;14.63;11.23;;;;;;;;;;143748;564;46018;-79
2022/01/24 09:41:40;;;;;;;16.73;11.10;;;;;;;;;;143746;580;46012;-78
2022/01/24 09:44:13;;;;;;;12.20;7.62;;;;;;;;;;143743;621;46020;-78
2022/01/24 09:46:55;;;;;;;17.73;8.43;;;;;;;;;;143748;573;46020;-78
2022/01/24 09:49:22;;;;;;;14.43;8.93;;;;;;;;;;143747;611;46011;-81
2022/01/24 09:51:52;;;;;;;14.98;8.18;;;;;;;;;;143745;585;46023;-78
2022/01/24 09:54:32;;;;;;;14.52;9.73;;;;;;;;;;143745;583;46010;-78
2022/01/24 09:57:02;;;;;;;11.93;7.80;;;;;;;;;;143745;576;46021;-78
2022/01/24 09:59:29;;;;;;;11.02;6.32;;;;;;;;;;143747;647;46010;-79
2022/01/24 10:02:36;;;;;;;14.50;7.37;;;;;;;;;;143746;569;46022;-80
2022/01/24 10:05:33;;;;;;;11.23;5.75;;;;;;;;;;143745;615;46010;-78
2022/01/24 10:08:03;;;;;;;11.88;7.50;;;;;;;;;;143750;585;46020;-78
2022/01/24 10:11:06;;;;;;;11.80;7.82;;;;;;;;;;143753;579;45049;-78
2022/01/24 10:16:43;;;;;;;12.88;8.35;;;;;;;;;;143752;646;46010;-79
2022/01/24 10:19:19;;;;;;;9.82;6.25;;;;;;;;;;143749;570;46012;-78
2022/01/24 10:21:51;;;;;;;19.37;12.07;;;;;;;;;;143748;581;46018;-77
2022/01/24 10:24:51;;;;;;;24.17;14.20;;;;;;;;;;143744;577;46022;-78
2022/01/24 10:27:32;;;;;;;19.25;9.38;;;;;;;;;;143745;578;46011;-78
2022/01/24 10:30:10;;;;;;;25.55;15.13;;;;;;;;;;143745;589;46020;-77
2022/01/24 10:33:01;;;;;;;17.15;11.38;;;;;;;;;;143747;581;46018;-78
2022/01/24 10:35:46;;;;;;;22.60;14.20;;;;;;;;;;143745;587;46034;-78
2022/01/24 10:38:54;;;;;;;8.77;6.00;;;;;;;;;;143744;569;46020;-78
2022/01/24 10:41:25;;;;;;;18.52;12.27;;;;;;;;;;143746;591;46021;-77
2022/01/24 10:43:56;;;;;;;16.42;8.82;;;;;;;;;;143750;570;46010;-79
2022/01/24 10:46:31;;;;;;;8.93;6.47;;;;;;;;;;143747;620;46022;-77
2022/01/24 10:49:07;;;;;;;9.90;5.12;;;;;;;;;;143744;585;46010;-77
2022/01/24 10:51:39;;;;;;;17.42;11.57;;;;;;;;;;143747;572;46020;-78
2022/01/24 10:54:06;;;;;;;18.27;12.45;;;;;;;;;;143746;573;46010;-78
2022/01/24 10:56:43;;;;;;;12.80;7.93;;;;;;;;;;143746;584;46022;-77
2022/01/24 10:59:18;;;;;;;12.27;7.95;;;;;;;;;;143745;579;46020;-77
2022/01/24 11:01:52;;;;;;;7.47;4.43;;;;;;;;;;143746;592;46020;-77
2022/01/24 11:04:20;;;;;;;5.25;4.00;;;;;;;;;;143748;564;46010;-77
2022/01/24 11:06:53;;;;;;;12.52;8.30;;;;;;;;;;143745;626;46050;-77
2022/01/24 11:09:26;;;;;;;7.93;5.68;;;;;;;;;;143744;616;46010;-78
2022/01/24 11:12:13;;;;;;;10.15;6.70;;;;;;;;;;143749;606;46021;-77
2022/01/24 11:14:47;;;;;;;23.48;14.45;;;;;;;;;;143747;591;46010;-78
2022/01/24 11:17:21;;;;;;;8.40;5.15;;;;;;;;;;143745;599;46022;-76
2022/01/24 11:19:50;;;;;;;9.70;5.53;;;;;;;;;;143744;577;46010;-76
2022/01/24 11:22:23;;;;;;;10.85;5.75;;;;;;;;;;143747;564;46020;-77
2022/01/24 11:24:59;;;;;;;21.37;15.25;;;;;;;;;;143750;618;46010;-77
2022/01/24 11:27:27;;;;;;;27.77;17.83;;;;;;;;;;143745;576;47023;-77
2022/01/24 11:29:59;;;;;;;33.75;21.70;;;;;;;;;;143744;576;46010;-77
2022/01/24 11:33:04;;;;;;;17.60;12.73;;;;;;;;;;143747;579;46019;-76
2022/01/24 11:35:41;;;;;;;19.48;13.65;;;;;;;;;;143748;622;46018;-77
2022/01/24 11:38:46;;;;;;;53.67;30.42;;;;;;;;;;143743;584;47020;-77
2022/01/24 11:41:21;;;;;;;;;;;;;;;;;;143750;981;46021;-77
2022/01/24 11:43:59;;;;;;;20.40;11.90;;;;;;;;;;143746;584;46020;-77
2022/01/24 11:46:43;;;;;;;27.37;10.52;;;;;;;;;;143746;652;46012;-78
2022/01/24 11:49:15;;;;;;;;;;;;;;;;;;143750;967;46022;-77
2022/01/24 11:51:49;;;;;;;12.18;7.05;;;;;;;;;;143751;574;46012;-78
2022/01/24 11:57:38;;;;;;;10.00;4.50;;;;;;;;;;143748;589;46042;-76
2022/01/24 12:00:31;;;;;;;16.10;12.10;;;;;;;;;;143747;575;46022;-77
2022/01/24 12:03:01;;;;;;;17.05;10.30;;;;;;;;;;143744;578;47020;-77
2022/01/24 12:05:44;;;;;;;14.73;8.93;;;;;;;;;;143746;614;46021;-77
2022/01/24 12:08:13;;;;;;;17.98;12.10;;;;;;;;;;143747;589;47010;-77
2022/01/24 12:10:44;;;;;;;18.15;13.15;;;;;;;;;;143739;570;47020;-77
2022/01/24 12:13:35;;;;;;;20.00;13.52;;;;;;;;;;143745;594;46010;-76
2022/01/24 12:16:14;;;;;;;21.10;13.82;;;;;;;;;;143744;605;46020;-76
2022/01/24 12:18:47;;;;;;;17.17;11.90;;;;;;;;;;143747;566;46011;-77
2022/01/24 12:21:22;;;;;;;14.27;8.98;;;;;;;;;;143743;574;46023;-78
2022/01/24 12:23:54;;;;;;;10.30;7.07;;;;;;;;;;143744;578;46010;-77
2022/01/24 12:26:25;;;;;;;5.87;4.37;;;;;;;;;;143747;605;46021;-77
2022/01/24 12:28:59;;;;;;;15.07;9.98;;;;;;;;;;143748;564;46010;-77
2022/01/24 12:31:49;;;;;;;15.88;9.23;;;;;;;;;;143744;572;47020;-77
2022/01/24 12:34:41;;;;;;;11.75;6.40;;;;;;;;;;143744;685;46011;-76
2022/01/24 12:37:10;;;;;;;12.20;8.43;;;;;;;;;;143747;620;46020;-77
2022/01/24 12:39:53;;;;;;;23.65;14.45;;;;;;;;;;143746;594;46020;-77
2022/01/24 12:42:47;;;;;;;28.87;18.25;;;;;;;;;;143745;575;46023;-77
2022/01/24 12:48:14;;;;;;;30.40;19.52;;;;;;;;;;143747;588;46020;-77
2022/01/24 12:50:49;;;;;;;20.75;14.68;;;;;;;;;;143747;620;46018;-77
2022/01/24 12:53:17;;;;;;;22.92;14.13;;;;;;;;;;143746;593;46022;-77
2022/01/24 12:55:45;;;;;;;21.85;14.82;;;;;;;;;;143747;589;46010;-77
2022/01/24 12:58:43;;;;;;;25.15;18.27;;;;;;;;;;143750;576;45026;-77
2022/01/24 13:01:33;;;;;;;33.85;22.73;;;;;;;;;;143753;578;45020;-77
2022/01/24 13:04:08;;;;;;;31.37;18.92;;;;;;;;;;143745;584;46012;-77
2022/01/24 13:06:37;;;;;;;33.63;20.05;;;;;;;;;;143747;601;46010;-77
2022/01/24 13:09:16;;;;;;;21.83;14.35;;;;;;;;;;143746;596;46020;-77
2022/01/24 13:11:54;;;;;;;13.82;8.82;;;;;;;;;;143748;585;46018;-77
2022/01/24 13:21:01;;;;;;;18.67;11.82;;;;;;;;;;143746;631;46021;-76
2022/01/24 13:23:24;;;;;;;23.35;15.25;;;;;;;;;;143748;570;46010;-76
2022/01/24 13:25:54;;;;;;;16.62;10.70;;;;;;;;;;143744;571;46039;-76
2022/01/24 13:28:23;;;;;;;11.70;8.73;;;;;;;;;;143744;601;46010;-77
2022/01/24 13:31:01;;;;;;;13.13;6.85;;;;;;;;;;143743;603;46012;-78
2022/01/24 13:33:30;;;;;;;24.05;13.75;;;;;;;;;;143748;584;47020;-77
2022/01/24 13:36:01;;;;;;;16.42;10.77;;;;;;;;;;143741;581;47023;-77
2022/01/24 13:38:30;;;;;;;13.70;8.50;;;;;;;;;;143744;591;46020;-77
2022/01/24 13:41:17;;;;;;;11.05;7.43;;;;;;;;;;143748;631;46012;-77
2022/01/24 13:43:58;;;;;;;13.77;8.15;;;;;;;;;;143748;571;46018;-76
2022/01/24 13:46:38;;;;;;;16.20;10.75;;;;;;;;;;143746;563;46012;-78
2022/01/24 13:49:11;;;;;;;11.02;6.97;;;;;;;;;;143744;580;46020;-78
2022/01/24 13:51:43;;;;;;;;;;;;;;;;;;143751;982;46012;-78
2022/01/24 13:54:19;;;;;;;13.25;7.80;;;;;;;;;;143755;604;46042;-77
2022/01/24 13:56:56;;;;;;;12.40;7.53;;;;;;;;;;143745;569;46023;-76
2022/01/24 13:59:33;;;;;;;18.20;12.37;;;;;;;;;;143745;609;46020;-76
2022/01/24 14:02:26;;;;;;;;;;;;;;;;;;;;;
2022/01/24 14:04:57;;;;;;;30.67;16.57;;;;;;;;;;143746;613;47018;-77
2022/01/24 14:07:37;;;;;;;12.77;7.45;;;;;;;;;;143745;611;46020;-76
2022/01/24 14:10:08;;;;;;;11.12;7.22;;;;;;;;;;143743;635;47021;-77
2022/01/24 14:12:54;;;;;;;21.45;10.65;;;;;;;;;;143747;604;46020;-76
2022/01/24 14:21:13;;;;;;;33.38;22.02;;;;;;;;;;143749;583;45033;-76
2022/01/24 14:23:40;;;;;;;24.70;18.00;;;;;;;;;;143744;591;46020;-76
2022/01/24 14:26:17;;;;;;;13.25;7.43;;;;;;;;;;143744;580;47018;-78
2022/01/24 14:28:48;;;;;;;32.47;24.15;;;;;;;;;;143749;633;46014;-77
2022/01/24 14:31:17;;;;;;;19.75;11.77;;;;;;;;;;143745;618;46020;-77
2022/01/24 14:33:45;;;;;;;21.83;13.48;;;;;;;;;;143747;603;46021;-77
2022/01/24 14:36:17;;;;;;;19.87;13.70;;;;;;;;;;143747;564;46048;-76
2022/01/24 14:38:53;;;;;;;22.05;15.15;;;;;;;;;;143744;590;46022;-76
2022/01/24 14:41:38;;;;;;;42.88;30.45;;;;;;;;;;143746;565;46012;-76
2022/01/24 14:46:58;;;;;;;21.52;12.27;;;;;;;;;;143747;569;46013;-76
2022/01/24 14:49:32;;;;;;;11.38;6.12;;;;;;;;;;143743;627;47023;-77
2022/01/24 14:52:04;;;;;;;12.13;6.97;;;;;;;;;;143742;578;46012;-77
2022/01/24 14:54:35;;;;;;;29.58;19.60;;;;;;;;;;143747;591;46021;-76
2022/01/24 14:57:04;;;;;;;23.45;15.02;;;;;;;;;;143746;572;46021;-76
2022/01/24 14:59:32;;;;;;;25.75;16.48;;;;;;;;;;143745;587;46022;-78
2022/01/24 15:01:59;;;;;;;29.87;18.02;;;;;;;;;;143745;622;46015;-77
2022/01/24 15:04:27;;;;;;;28.05;21.98;;;;;;;;;;143745;595;46021;-76
2022/01/24 15:06:54;;;;;;;25.73;18.10;;;;;;;;;;143750;585;46020;-76
2022/01/24 15:09:26;;;;;;;39.42;25.50;;;;;;;;;;143746;572;46014;-77
2022/01/24 15:11:57;;;;;;;28.87;18.85;;;;;;;;;;143745;615;46012;-78
2022/01/24 15:14:46;;;;;;;27.40;18.55;;;;;;;;;;143745;607;46020;-78
2022/01/24 15:17:42;;;;;;;43.00;27.37;;;;;;;;;;143748;591;46019;-77
2022/01/24 15:25:37;;;;;;;39.65;27.35;;;;;;;;;;143750;619;46049;-77
2022/01/24 15:28:05;;;;;;;20.98;14.27;;;;;;;;;;143749;616;46012;-78
2022/01/24 15:30:51;;;;;;;29.55;18.92;;;;;;;;;;143750;576;45024;-76
2022/01/24 15:33:19;;;;;;;31.37;16.75;;;;;;;;;;143746;556;46012;-77
2022/01/24 15:36:06;;;;;;;27.40;13.80;;;;;;;;;;143751;633;46020;-77
2022/01/24 15:38:55;;;;;;;19.15;13.57;;;;;;;;;;143750;615;46020;-77
2022/01/24 15:41:23;;;;;;;24.98;14.77;;;;;;;;;;143744;565;47023;-77
2022/01/24 15:44:02;;;;;;;15.77;11.12;;;;;;;;;;143750;614;45020;-77
2022/01/24 15:49:22;;;;;;;27.55;17.90;;;;;;;;;;143754;601;45021;-78
2022/01/24 15:51:50;;;;;;;21.08;13.90;;;;;;;;;;143745;602;46022;-79
2022/01/24 15:54:23;;;;;;;26.40;15.13;;;;;;;;;;143748;596;46041;-78
2022/01/24 15:59:34;;;;;;;21.62;11.75;;;;;;;;;;143750;569;46020;-80
2022/01/24 16:02:01;;;;;;;12.52;7.75;;;;;;;;;;143748;623;45587;-78
2022/01/24 16:04:27;;;;;;;12.20;7.87;;;;;;;;;;143748;582;46917;-78
2022/01/24 16:06:54;;;;;;;15.73;11.15;;;;;;;;;;143748;569;46020;-78
2022/01/24 16:09:22;;;;;;;13.32;9.45;;;;;;;;;;143749;572;46020;-80
2022/01/24 16:11:49;;;;;;;14.63;10.05;;;;;;;;;;143748;582;46021;-78
2022/01/24 16:14:17;;;;;;;14.50;9.02;;;;;;;;;;143743;612;46012;-79
2022/01/24 16:16:43;;;;;;;26.27;14.05;;;;;;;;;;143748;583;46015;-79
2022/01/24 16:19:10;;;;;;;18.75;9.30;;;;;;;;;;143750;580;46012;-79
2022/01/24 16:21:42;;;;;;;21.08;15.48;;;;;;;;;;143746;588;46022;-79
2022/01/24 16:27:02;;;;;;;24.92;17.05;;;;;;;;;;143747;620;46014;-78
2022/01/24 16:29:29;;;;;;;17.00;11.57;;;;;;;;;;143749;578;46012;-79
2022/01/24 16:31:59;;;;;;;11.77;6.95;;;;;;;;;;143746;576;46015;-80
2022/01/24 16:34:30;;;;;;;21.83;14.35;;;;;;;;;;143746;603;46020;-79
2022/01/24 16:36:57;;;;;;;18.15;12.52;;;;;;;;;;143745;579;46020;-79
2022/01/24 16:39:30;;;;;;;14.70;10.10;;;;;;;;;;143748;582;46021;-79
2022/01/24 16:42:03;;;;;;;18.98;11.80;;;;;;;;;;143746;663;46023;-81
2022/01/24 16:44:52;;;;;;;12.27;7.65;;;;;;;;;;143749;592;46012;-78
2022/01/24 16:47:18;;;;;;;11.35;7.87;;;;;;;;;;143747;589;46021;-78
2022/01/24 16:49:50;;;;;;;10.95;7.95;;;;;;;;;;143752;569;46018;-77
2022/01/24 16:52:18;;;;;;;11.82;7.45;;;;;;;;;;143748;591;46022;-77
2022/01/24 16:54:59;;;;;;;14.75;8.13;;;;;;;;;;143747;623;46013;-80
2022/01/24 16:57:26;;;;;;;16.05;7.55;;;;;;;;;;143747;585;46020;-79
2022/01/24 16:59:53;;;;;;;22.30;13.73;;;;;;;;;;143749;570;46012;-81
2022/01/24 17:02:20;;;;;;;10.98;7.90;;;;;;;;;;143746;578;47022;-79
2022/01/24 17:04:48;;;;;;;15.32;9.68;;;;;;;;;;143746;582;47020;-81